createdAt,value
2022-09-12T00:00:48.763Z,97890.38
2022-09-12T00:02:50.138Z,97889.59
2022-09-12T00:04:51.403Z,97890.44
2022-09-12T00:06:52.691Z,97891.31
2022-09-12T00:08:54.011Z,97887.88
2022-09-12T00:10:55.302Z,97881.09
2022-09-12T00:12:56.824Z,97882.84
2022-09-12T00:14:58.154Z,97875.97
2022-09-12T00:16:59.595Z,97867.50
2022-09-12T00:19:01.362Z,97870.06
2022-09-12T00:21:02.700Z,97874.31
2022-09-12T00:23:04.605Z,97872.59
2022-09-12T00:25:05.925Z,97878.59
2022-09-12T00:27:07.223Z,97876.03
2022-09-12T00:29:08.520Z,97872.59
2022-09-12T00:31:09.825Z,97878.53
2022-09-12T00:33:11.170Z,97883.66
2022-09-12T00:35:12.986Z,97883.66
2022-09-12T00:37:14.284Z,97881.13
2022-09-12T00:39:16.615Z,97875.16
2022-09-12T00:41:17.892Z,97876.91
2022-09-12T00:43:19.226Z,97877.72
2022-09-12T00:45:20.498Z,97872.59
2022-09-12T00:47:21.825Z,97871.75
2022-09-12T00:49:23.131Z,97871.75
2022-09-12T00:51:24.410Z,97874.34
2022-09-12T00:53:25.706Z,97874.34
2022-09-12T00:55:27.820Z,97878.59
2022-09-12T00:57:29.168Z,97876.91
2022-09-12T00:59:30.463Z,97877.81
2022-09-12T01:01:32.803Z,97870.97
2022-09-12T01:03:34.475Z,97870.13
2022-09-12T01:05:35.819Z,97870.97
2022-09-12T01:07:40.001Z,97869.28
2022-09-12T01:09:41.674Z,97870.13
2022-09-12T01:11:46.147Z,97870.13
2022-09-12T01:13:47.423Z,97859.06
2022-09-12T01:15:48.690Z,97865.00
2022-09-12T01:17:50.114Z,97861.63
2022-09-12T01:19:51.430Z,97865.88
2022-09-12T01:21:52.726Z,97860.69
2022-09-12T01:23:54.067Z,97859.81
2022-09-12T01:25:55.370Z,97865.00
2022-09-12T01:27:56.632Z,97870.91
2022-09-12T01:29:57.963Z,97861.53
2022-09-12T01:31:59.401Z,97872.63
2022-09-12T01:34:00.911Z,97876.03
2022-09-12T01:36:02.191Z,97870.06
2022-09-12T01:38:03.510Z,97873.53
2022-09-12T01:40:05.063Z,97876.91
2022-09-12T01:42:06.881Z,97872.69
2022-09-12T01:44:08.274Z,97875.25
2022-09-12T01:46:09.580Z,97870.16
2022-09-12T01:48:10.887Z,97855.56
2022-09-12T01:50:12.146Z,97870.91
2022-09-12T01:52:13.465Z,97871.84
2022-09-12T01:54:15.734Z,97863.31
2022-09-12T01:56:17.834Z,97864.16
2022-09-12T01:58:19.131Z,97863.31
2022-09-12T02:00:20.478Z,97859.06
2022-09-12T02:02:21.799Z,97853.97
2022-09-12T02:04:23.142Z,97847.22
2022-09-12T02:06:24.414Z,97845.59
2022-09-12T02:08:25.691Z,97852.47
2022-09-12T02:10:31.782Z,97699.16
2022-09-12T02:12:33.731Z,97849.13
2022-09-12T02:14:35.013Z,97852.53
2022-09-12T02:16:36.364Z,97855.09
2022-09-12T02:18:37.678Z,97844.88
2022-09-12T02:20:51.547Z,97841.47
2022-09-12T02:22:52.862Z,97849.19
2022-09-12T02:24:54.139Z,97848.41
2022-09-12T02:26:55.443Z,97858.63
2022-09-12T02:28:56.714Z,97851.84
2022-09-12T02:30:58.122Z,97853.59
2022-09-12T02:32:59.431Z,97858.72
2022-09-12T02:35:00.841Z,97847.66
2022-09-12T02:37:02.102Z,97843.38
2022-09-12T02:39:03.442Z,97847.66
2022-09-12T02:41:04.760Z,97851.91
2022-09-12T02:43:06.055Z,97847.66
2022-09-12T02:45:07.406Z,97845.94
2022-09-12T02:47:08.683Z,97841.59
2022-09-12T02:49:09.958Z,97847.53
2022-09-12T02:51:11.243Z,97839.84
2022-09-12T02:53:12.511Z,97843.25
2022-09-12T02:55:13.783Z,97844.97
2022-09-12T02:57:15.215Z,97842.47
2022-09-12T02:59:17.706Z,97841.63
2022-09-12T03:01:19.156Z,97835.72
2022-09-12T03:03:20.626Z,97842.53
2022-09-12T03:05:21.934Z,97839.13
2022-09-12T03:07:23.194Z,97850.19
2022-09-12T03:09:24.604Z,97843.41
2022-09-12T03:11:26.555Z,97847.66
2022-09-12T03:13:27.821Z,97845.16
2022-09-12T03:15:29.407Z,97845.94
2022-09-12T03:17:31.312Z,97838.34
2022-09-12T03:19:32.642Z,97838.34
2022-09-12T03:21:33.914Z,97843.38
2022-09-12T03:23:35.197Z,97835.66
2022-09-12T03:25:36.710Z,97838.28
2022-09-12T03:27:38.104Z,97822.09
2022-09-12T03:29:39.442Z,97834.00
2022-09-12T03:31:40.746Z,97832.31
2022-09-12T03:33:42.073Z,97838.28
2022-09-12T03:35:43.691Z,97832.38
2022-09-12T03:37:45.016Z,97833.25
2022-09-12T03:39:46.428Z,97835.78
2022-09-12T03:41:47.747Z,97834.09
2022-09-12T03:43:49.045Z,97831.56
2022-09-12T03:45:50.572Z,97832.41
2022-09-12T03:47:51.929Z,97832.41
2022-09-12T03:49:53.204Z,97838.41
2022-09-12T03:51:54.535Z,97832.44
2022-09-12T03:53:55.849Z,97838.44
2022-09-12T03:55:57.125Z,97844.41
2022-09-12T03:57:58.395Z,97837.59
2022-09-12T03:59:59.752Z,97841.81
2022-09-12T04:02:01.107Z,97840.97
2022-09-12T04:04:02.455Z,97837.56
2022-09-12T04:06:03.743Z,97845.16
2022-09-12T04:08:05.040Z,97839.28
2022-09-12T04:10:06.314Z,97837.59
2022-09-12T04:12:07.965Z,97846.97
2022-09-12T04:14:09.245Z,97842.75
2022-09-12T04:16:10.742Z,97845.31
2022-09-12T04:18:12.102Z,97838.56
2022-09-12T04:20:13.413Z,97841.97
2022-09-12T04:22:14.941Z,97837.66
2022-09-12T04:24:16.283Z,97840.13
2022-09-12T04:26:17.845Z,97835.03
2022-09-12T04:28:19.130Z,97847.88
2022-09-12T04:30:20.398Z,97842.78
2022-09-12T04:32:22.370Z,97845.25
2022-09-12T04:34:23.850Z,97846.16
2022-09-12T04:36:25.147Z,97845.31
2022-09-12T04:38:26.723Z,97848.72
2022-09-12T04:40:28.001Z,97844.50
2022-09-12T04:42:29.267Z,97855.59
2022-09-12T04:44:31.113Z,97845.31
2022-09-12T04:46:32.434Z,97848.72
2022-09-12T04:48:33.695Z,97847.94
2022-09-12T04:50:34.963Z,97849.66
2022-09-12T04:52:36.266Z,97854.81
2022-09-12T04:54:37.931Z,97847.16
2022-09-12T04:56:39.412Z,97849.78
2022-09-12T04:58:40.670Z,97857.38
2022-09-12T05:00:41.988Z,97855.69
2022-09-12T05:02:43.307Z,97852.25
2022-09-12T05:04:46.897Z,97857.38
2022-09-12T05:06:48.196Z,97863.31
2022-09-12T05:08:49.486Z,97861.63
2022-09-12T05:10:50.814Z,97866.75
2022-09-12T05:12:52.711Z,97869.38
2022-09-12T05:14:54.183Z,97877.03
2022-09-12T05:16:59.805Z,97876.19
2022-09-12T05:19:01.406Z,97876.19
2022-09-12T05:21:02.732Z,97876.13
2022-09-12T05:23:04.262Z,97887.06
2022-09-12T05:25:05.801Z,97883.84
2022-09-12T05:27:07.403Z,97882.44
2022-09-12T05:29:08.719Z,97881.75
2022-09-12T05:31:10.009Z,97875.13
2022-09-12T05:33:11.306Z,97875.19
2022-09-12T05:35:12.614Z,97875.25
2022-09-12T05:37:13.891Z,97882.06
2022-09-12T05:39:15.203Z,97882.84
2022-09-12T05:41:19.124Z,97887.97
2022-09-12T05:43:23.208Z,97893.88
2022-09-12T05:45:24.475Z,97888.75
2022-09-12T05:47:25.814Z,97888.69
2022-09-12T05:49:27.140Z,97893.00
2022-09-12T05:51:28.433Z,97893.06
2022-09-12T05:53:29.751Z,97894.72
2022-09-12T05:55:31.543Z,97891.25
2022-09-12T05:57:33.655Z,97886.91
2022-09-12T05:59:35.039Z,97892.25
2022-09-12T06:01:36.478Z,97894.06
2022-09-12T06:03:37.779Z,97890.03
2022-09-12T06:05:39.278Z,97894.41
2022-09-12T06:07:40.547Z,97891.16
2022-09-12T06:09:42.234Z,97892.88
2022-09-12T06:11:43.594Z,97895.50
2022-09-12T06:13:44.870Z,97897.19
2022-09-12T06:15:46.178Z,97893.69
2022-09-12T06:17:51.266Z,97890.50
2022-09-12T06:19:53.354Z,97889.94
2022-09-12T06:21:54.674Z,97897.31
2022-09-12T06:23:55.979Z,97896.91
2022-09-12T06:25:57.238Z,97893.84
2022-09-12T06:27:58.529Z,97902.63
2022-09-12T06:29:59.860Z,97900.31
2022-09-12T06:32:01.795Z,97896.38
2022-09-12T06:34:03.117Z,97892.66
2022-09-12T06:36:06.926Z,97889.06
2022-09-12T06:38:11.550Z,97890.59
2022-09-12T06:40:12.886Z,97887.94
2022-09-12T06:42:14.889Z,97884.50
2022-09-12T06:44:16.340Z,97903.22
2022-09-12T06:46:17.750Z,97898.97
2022-09-12T06:48:19.219Z,97901.56
2022-09-12T06:50:21.810Z,97894.78
2022-09-12T06:52:23.090Z,97899.91
2022-09-12T06:54:26.422Z,97895.44
2022-09-12T06:56:27.794Z,97895.25
2022-09-12T06:58:29.066Z,97905.34
2022-09-12T07:00:30.343Z,97907.00
2022-09-12T07:02:31.668Z,97903.63
2022-09-12T07:04:35.915Z,97909.53
2022-09-12T07:06:37.206Z,97907.00
2022-09-12T07:08:38.510Z,97911.25
2022-09-12T07:10:39.831Z,97908.69
2022-09-12T07:12:41.103Z,97909.53
2022-09-12T07:14:42.389Z,97909.53
2022-09-12T07:16:44.007Z,97911.28
2022-09-12T07:18:46.794Z,97911.28
2022-09-12T07:20:48.097Z,97912.94
2022-09-12T07:22:49.412Z,97920.59
2022-09-12T07:24:50.721Z,97918.06
2022-09-12T07:26:52.092Z,97915.44
2022-09-12T07:29:03.932Z,97912.75
2022-09-12T07:31:17.788Z,97920.34
2022-09-12T07:33:19.081Z,97916.91
2022-09-12T07:35:20.363Z,97921.56
2022-09-12T07:37:21.698Z,97915.72
2022-09-12T07:39:23.015Z,97925.16
2022-09-12T07:41:24.615Z,97927.88
2022-09-12T07:43:25.907Z,97927.78
2022-09-12T07:45:27.184Z,97924.09
2022-09-12T07:47:28.515Z,97922.50
2022-09-12T07:49:30.554Z,97927.47
2022-09-12T07:51:31.963Z,97929.81
2022-09-12T07:53:33.863Z,97929.00
2022-09-12T07:55:35.150Z,97930.66
2022-09-12T07:57:36.458Z,97934.22
2022-09-12T07:59:52.480Z,97929.63
2022-09-12T08:01:54.550Z,97906.69
2022-09-12T08:03:56.252Z,97930.19
2022-09-12T08:05:57.552Z,97938.81
2022-09-12T08:07:58.827Z,97934.59
2022-09-12T08:10:00.518Z,97942.31
2022-09-12T08:12:01.851Z,97942.28
2022-09-12T08:14:05.551Z,97941.25
2022-09-12T08:16:07.014Z,97935.22
2022-09-12T08:18:08.362Z,97936.34
2022-09-12T08:20:09.657Z,97933.84
2022-09-12T08:22:11.242Z,97933.69
2022-09-12T08:24:12.523Z,97933.38
2022-09-12T08:26:13.840Z,97930.00
2022-09-12T08:28:15.123Z,97933.75
2022-09-12T08:30:16.396Z,97929.28
2022-09-12T08:32:17.675Z,97930.81
2022-09-12T08:34:19.253Z,97926.44
2022-09-12T08:36:21.306Z,97931.34
2022-09-12T08:40:25.073Z,97936.09
2022-09-12T08:42:26.493Z,97929.78
2022-09-12T08:44:27.806Z,97935.09
2022-09-12T08:46:29.175Z,97927.41
2022-09-12T08:48:31.394Z,97925.50
2022-09-12T08:50:32.673Z,97933.28
2022-09-12T08:52:33.934Z,97929.97
2022-09-12T08:54:35.258Z,97932.53
2022-09-12T08:56:37.032Z,97925.19
2022-09-12T08:58:38.687Z,97925.41
2022-09-12T09:00:40.677Z,97931.25
2022-09-12T09:02:42.140Z,97926.03
2022-09-12T09:04:43.907Z,97926.53
2022-09-12T09:06:46.038Z,97935.03
2022-09-12T09:08:47.932Z,97926.19
2022-09-12T09:10:49.347Z,97930.22
2022-09-12T09:12:50.649Z,97931.03
2022-09-12T09:14:51.918Z,97928.13
2022-09-12T09:16:53.199Z,97920.13
2022-09-12T09:18:54.479Z,97930.00
2022-09-12T09:20:55.745Z,97931.47
2022-09-12T09:22:57.055Z,97951.59
2022-09-12T09:24:58.916Z,97924.66
2022-09-12T09:27:00.190Z,97929.59
2022-09-12T09:29:01.586Z,97933.25
2022-09-12T09:31:02.973Z,97933.25
2022-09-12T09:33:04.299Z,97930.44
2022-09-12T09:35:05.615Z,97922.88
2022-09-12T09:37:07.148Z,97926.47
2022-09-12T09:39:08.411Z,97932.16
2022-09-12T09:41:09.704Z,97931.81
2022-09-12T09:43:11.090Z,97931.75
2022-09-12T09:45:12.395Z,97961.22
2022-09-12T09:47:13.718Z,97928.66
2022-09-12T09:49:15.281Z,97924.88
2022-09-12T09:51:17.750Z,97929.03
2022-09-12T09:53:19.019Z,97925.78
2022-09-12T09:55:20.351Z,97926.59
2022-09-12T09:57:21.639Z,97930.63
2022-09-12T09:59:22.895Z,97925.06
2022-09-12T10:01:24.627Z,97922.69
2022-09-12T10:03:26.381Z,97916.00
2022-09-12T10:05:28.718Z,97922.94
2022-09-12T10:07:30.005Z,97920.59
2022-09-12T10:09:33.038Z,97921.59
2022-09-12T10:11:34.570Z,97919.97
2022-09-12T10:13:36.034Z,97930.34
2022-09-12T10:15:38.407Z,97921.06
2022-09-12T10:17:39.718Z,97935.63
2022-09-12T10:19:41.202Z,97922.06
2022-09-12T10:21:42.498Z,97936.56
2022-09-12T10:23:43.822Z,97932.88
2022-09-12T10:25:45.647Z,97930.00
2022-09-12T10:27:46.911Z,97919.69
2022-09-12T10:29:48.548Z,97931.00
2022-09-12T10:31:49.921Z,97919.94
2022-09-12T10:33:52.948Z,97928.59
2022-09-12T10:35:55.120Z,97919.06
2022-09-12T10:37:56.445Z,97929.72
2022-09-12T10:39:58.572Z,97932.75
2022-09-12T10:41:59.991Z,97922.81
2022-09-12T10:44:01.318Z,97922.22
2022-09-12T10:46:02.609Z,97923.47
2022-09-12T10:48:07.547Z,97927.63
2022-09-12T10:50:09.091Z,97920.56
2022-09-12T10:52:10.408Z,97916.34
2022-09-12T10:54:12.761Z,97912.63
2022-09-12T10:56:14.076Z,97920.47
2022-09-12T10:58:15.406Z,97912.59
2022-09-12T11:00:17.940Z,97912.09
2022-09-12T11:02:19.349Z,97916.56
2022-09-12T11:04:20.690Z,97913.28
2022-09-12T11:06:21.951Z,97914.25
2022-09-12T11:08:23.774Z,97916.06
2022-09-12T11:10:26.898Z,97913.53
2022-09-12T11:12:28.189Z,97924.69
2022-09-12T11:14:29.526Z,97920.44
2022-09-12T11:16:30.886Z,97919.66
2022-09-12T11:18:32.195Z,97919.72
2022-09-12T11:20:33.552Z,97909.63
2022-09-12T11:22:34.846Z,97919.72
2022-09-12T11:24:36.175Z,97912.50
2022-09-12T11:26:37.736Z,97910.53
2022-09-12T11:28:39.009Z,97912.00
2022-09-12T11:30:40.317Z,97912.72
2022-09-12T11:32:41.642Z,97914.22
2022-09-12T11:34:42.958Z,97915.00
2022-09-12T11:36:44.302Z,97905.59
2022-09-12T11:38:45.902Z,97908.94
2022-09-12T11:40:47.265Z,97908.75
2022-09-12T11:42:48.523Z,97911.25
2022-09-12T11:44:49.872Z,97905.94
2022-09-12T11:46:52.144Z,97911.50
2022-09-12T11:48:53.699Z,97915.78
2022-09-12T11:50:54.990Z,97907.25
2022-09-12T11:52:56.287Z,97900.31
2022-09-12T11:54:57.942Z,97905.72
2022-09-12T11:56:59.343Z,97902.47
2022-09-12T11:59:00.618Z,97904.81
2022-09-12T12:01:01.927Z,97908.94
2022-09-12T12:03:03.284Z,97905.72
2022-09-12T12:05:05.018Z,97907.75
2022-09-12T12:07:06.296Z,97912.34
2022-09-12T12:09:07.583Z,97909.88
2022-09-12T12:11:08.893Z,97902.28
2022-09-12T12:13:14.002Z,97928.88
2022-09-12T12:15:15.622Z,97909.31
2022-09-12T12:17:17.144Z,97908.50
2022-09-12T12:19:18.427Z,97905.94
2022-09-12T12:21:20.017Z,97909.94
2022-09-12T12:23:21.286Z,97897.69
2022-09-12T12:25:27.566Z,97901.75
2022-09-12T12:27:31.050Z,97897.56
2022-09-12T12:29:35.164Z,97905.28
2022-09-12T12:31:36.442Z,97896.63
2022-09-12T12:33:37.716Z,97901.75
2022-09-12T12:35:39.422Z,97899.38
2022-09-12T12:37:40.720Z,97898.69
2022-09-12T12:39:42.116Z,97896.25
2022-09-12T12:41:43.447Z,97903.97
2022-09-12T12:43:44.789Z,97895.53
2022-09-12T12:45:46.132Z,97897.09
2022-09-12T12:47:47.426Z,97902.13
2022-09-12T12:49:48.721Z,97902.34
2022-09-12T12:51:50.042Z,97894.69
2022-09-12T12:53:51.610Z,97889.25
2022-09-12T12:55:52.886Z,97880.22
2022-09-12T12:57:54.190Z,97884.56
2022-09-12T12:59:55.502Z,97881.53
2022-09-12T13:01:57.165Z,97879.63
2022-09-12T13:03:58.479Z,97878.09
2022-09-12T13:05:59.767Z,97876.72
2022-09-12T13:08:01.064Z,97871.84
2022-09-12T13:10:02.403Z,97872.78
2022-09-12T13:12:04.416Z,97872.00
2022-09-12T13:14:07.139Z,97872.94
2022-09-12T13:16:08.448Z,97877.28
2022-09-12T13:18:09.765Z,97869.53
2022-09-12T13:20:27.392Z,97872.09
2022-09-12T13:22:29.458Z,97875.53
2022-09-12T13:24:31.110Z,97867.06
2022-09-12T13:26:32.394Z,97871.41
2022-09-12T13:28:33.666Z,97868.09
2022-09-12T13:30:35.057Z,97869.94
2022-09-12T13:32:36.330Z,97863.97
2022-09-12T13:34:37.602Z,97865.69
2022-09-12T13:36:38.883Z,97858.06
2022-09-12T13:38:40.161Z,97848.63
2022-09-12T13:40:41.435Z,97852.72
2022-09-12T13:42:42.758Z,97850.25
2022-09-12T13:44:44.081Z,97845.66
2022-09-12T13:46:45.424Z,97847.63
2022-09-12T13:48:46.787Z,97844.25
2022-09-12T13:50:48.117Z,97846.50
2022-09-12T13:52:49.438Z,97843.19
2022-09-12T13:54:51.009Z,97839.53
2022-09-12T13:56:52.271Z,97837.94
2022-09-12T13:58:54.064Z,97832.50
2022-09-12T14:00:55.414Z,97830.72
2022-09-12T14:03:16.654Z,97835.94
2022-09-12T14:05:19.804Z,97842.88
2022-09-12T14:07:21.139Z,97842.59
2022-09-12T14:09:25.177Z,97831.81
2022-09-12T14:11:26.890Z,97840.09
2022-09-12T14:13:28.223Z,97832.88
2022-09-12T14:15:29.524Z,97829.34
2022-09-12T14:17:31.503Z,97827.03
2022-09-12T14:19:34.560Z,97830.25
2022-09-12T14:21:35.999Z,97838.53
2022-09-12T14:23:37.782Z,97828.50
2022-09-12T14:25:40.462Z,97832.88
2022-09-12T14:27:45.834Z,97824.41
2022-09-12T14:29:47.282Z,97832.13
2022-09-12T14:31:48.599Z,97826.16
2022-09-12T14:33:49.877Z,97827.06
2022-09-12T14:35:51.138Z,97822.78
2022-09-12T14:37:52.481Z,97823.72
2022-09-12T14:39:53.899Z,97821.41
2022-09-12T14:41:55.439Z,97812.06
2022-09-12T14:43:56.788Z,97818.03
2022-09-12T14:45:59.542Z,97818.00
2022-09-12T14:48:00.880Z,97815.44
2022-09-12T14:50:02.254Z,97811.19
2022-09-12T14:52:03.678Z,97815.47
2022-09-12T14:54:05.137Z,97812.06
2022-09-12T14:56:06.934Z,97820.66
2022-09-12T14:58:08.366Z,97817.34
2022-09-12T15:00:09.647Z,97820.81
2022-09-12T15:02:11.243Z,97817.47
2022-09-12T15:04:12.546Z,97812.47
2022-09-12T15:06:13.830Z,97812.69
2022-09-12T15:08:15.924Z,97822.97
2022-09-12T15:10:17.232Z,97813.56
2022-09-12T15:12:18.669Z,97819.19
2022-09-12T15:14:19.954Z,97808.25
2022-09-12T15:16:21.337Z,97813.41
2022-09-12T15:18:22.667Z,97810.47
2022-09-12T15:20:24.137Z,97805.09
2022-09-12T15:22:26.206Z,97805.13
2022-09-12T15:24:27.743Z,97803.81
2022-09-12T15:26:30.562Z,97798.25
2022-09-12T15:28:31.856Z,97800.72
2022-09-12T15:30:33.128Z,97803.03
2022-09-12T15:32:34.398Z,97799.75
2022-09-12T15:34:35.718Z,97802.44
2022-09-12T15:36:36.986Z,97798.66
2022-09-12T15:38:38.310Z,97793.53
2022-09-12T15:40:39.627Z,97796.81
2022-09-12T15:42:40.931Z,97796.91
2022-09-12T15:44:42.227Z,97797.13
2022-09-12T15:46:43.608Z,97795.44
2022-09-12T15:48:45.023Z,97798.78
2022-09-12T15:50:46.339Z,97800.56
2022-09-12T15:52:47.879Z,97735.75
2022-09-12T15:54:49.154Z,97803.88
2022-09-12T15:56:50.414Z,97797.50
2022-09-12T15:59:00.048Z,97800.78
2022-09-12T16:01:02.397Z,97802.50
2022-09-12T16:03:03.713Z,97794.28
2022-09-12T16:05:05.019Z,97798.69
2022-09-12T16:07:06.303Z,97795.59
2022-09-12T16:09:07.795Z,97790.31
2022-09-12T16:11:09.092Z,97792.66
2022-09-12T16:13:10.411Z,97792.16
2022-09-12T16:15:11.749Z,97786.09
2022-09-12T16:17:13.029Z,97786.88
2022-09-12T16:19:14.411Z,97779.50
2022-09-12T16:21:16.071Z,97778.56
2022-09-12T16:23:17.527Z,97774.00
2022-09-12T16:25:18.866Z,97772.22
2022-09-12T16:27:20.292Z,97777.25
2022-09-12T16:29:21.593Z,97774.59
2022-09-12T16:31:23.125Z,97778.94
2022-09-12T16:33:24.479Z,97781.53
2022-09-12T16:35:25.768Z,97778.13
2022-09-12T16:37:27.091Z,97764.38
2022-09-12T16:39:28.371Z,97770.31
2022-09-12T16:41:29.694Z,97762.75
2022-09-12T16:43:30.974Z,97762.50
2022-09-12T16:45:32.615Z,97760.75
2022-09-12T16:47:34.112Z,97759.41
2022-09-12T16:49:35.391Z,97763.66
2022-09-12T16:51:36.909Z,97763.59
2022-09-12T16:53:38.303Z,97760.00
2022-09-12T16:55:39.574Z,97761.72
2022-09-12T16:57:40.919Z,97756.50
2022-09-12T16:59:42.197Z,97760.56
2022-09-12T17:01:45.082Z,97761.31
2022-09-12T17:03:47.126Z,97753.44
2022-09-12T17:05:48.420Z,97751.94
2022-09-12T17:07:49.774Z,97752.88
2022-09-12T17:09:51.857Z,97752.72
2022-09-12T17:11:53.261Z,97753.63
2022-09-12T17:14:09.984Z,97748.69
2022-09-12T17:16:11.690Z,97747.94
2022-09-12T17:18:13.071Z,97754.00
2022-09-12T17:20:14.404Z,97745.41
2022-09-12T17:22:15.678Z,97752.31
2022-09-12T17:24:16.964Z,97749.59
2022-09-12T17:26:18.241Z,97747.13
2022-09-12T17:28:19.516Z,97745.50
2022-09-12T17:30:20.828Z,97754.03
2022-09-12T17:32:22.105Z,97754.41
2022-09-12T17:34:23.482Z,97753.44
2022-09-12T17:36:24.763Z,97652.03
2022-09-12T17:38:26.160Z,97754.50
2022-09-12T17:40:48.688Z,97752.50
2022-09-12T17:42:48.760Z,97755.16
2022-09-12T17:44:50.435Z,97742.28
2022-09-12T17:46:51.747Z,97748.31
2022-09-12T17:48:53.223Z,97751.56
2022-09-12T17:50:54.735Z,97742.91
2022-09-12T17:52:56.053Z,97745.31
2022-09-12T17:54:57.330Z,97741.78
2022-09-12T17:56:59.354Z,97743.56
2022-09-12T17:59:00.659Z,97744.47
2022-09-12T18:01:20.808Z,97726.44
2022-09-12T18:03:22.831Z,97760.41
2022-09-12T18:05:24.152Z,97750.69
2022-09-12T18:07:25.418Z,97750.53
2022-09-12T18:09:26.774Z,97752.16
2022-09-12T18:11:28.107Z,97749.34
2022-09-12T18:13:29.397Z,97745.06
2022-09-12T18:15:31.140Z,97752.78
2022-09-12T18:17:33.268Z,97750.28
2022-09-12T18:19:35.092Z,97750.75
2022-09-12T18:21:36.439Z,97748.63
2022-09-12T18:23:37.715Z,97746.66
2022-09-12T18:25:39.035Z,97752.31
2022-09-12T18:27:40.314Z,97750.53
2022-09-12T18:29:41.656Z,97739.38
2022-09-12T18:31:42.976Z,97744.50
2022-09-12T18:33:44.285Z,97739.38
2022-09-12T18:35:45.578Z,97737.69
2022-09-12T18:37:46.892Z,97744.41
2022-09-12T18:39:48.354Z,97731.34
2022-09-12T18:41:49.897Z,97736.44
2022-09-12T18:43:51.246Z,97733.97
2022-09-12T18:45:52.553Z,97735.59
2022-09-12T18:47:53.887Z,97743.19
2022-09-12T18:49:56.321Z,97744.00
2022-09-12T18:51:57.603Z,97744.13
2022-09-12T18:53:58.876Z,97740.63
2022-09-12T18:56:00.194Z,97742.16
2022-09-12T18:58:03.537Z,97738.56
2022-09-12T19:00:09.309Z,97741.28
2022-09-12T19:02:13.281Z,97744.13
2022-09-12T19:04:16.058Z,97753.53
2022-09-12T19:06:17.799Z,97741.69
2022-09-12T19:08:19.247Z,97748.31
2022-09-12T19:10:20.548Z,97748.03
2022-09-12T19:12:21.831Z,97750.19
2022-09-12T19:14:23.178Z,97753.25
2022-09-12T19:16:24.486Z,97604.44
2022-09-12T19:18:25.817Z,97749.47
2022-09-12T19:20:27.206Z,97740.88
2022-09-12T19:22:28.477Z,97739.59
2022-09-12T19:24:30.912Z,97739.47
2022-09-12T19:26:32.207Z,97747.09
2022-09-12T19:28:33.478Z,97742.91
2022-09-12T19:30:34.791Z,97747.09
2022-09-12T19:32:36.959Z,97742.50
2022-09-12T19:34:38.467Z,97743.09
2022-09-12T19:36:47.525Z,97740.50
2022-09-12T19:38:49.022Z,97744.69
2022-09-12T19:40:50.340Z,97742.31
2022-09-12T19:42:51.614Z,97742.84
2022-09-12T19:44:55.740Z,97738.81
2022-09-12T19:46:57.007Z,97738.16
2022-09-12T19:48:58.261Z,97728.97
2022-09-12T19:51:00.030Z,97732.63
2022-09-12T19:53:01.898Z,97736.03
2022-09-12T19:55:03.550Z,97738.59
2022-09-12T19:57:04.851Z,97728.44
2022-09-12T19:59:06.151Z,97727.66
2022-09-12T20:01:07.492Z,97618.47
2022-09-12T20:03:08.875Z,97727.16
2022-09-12T20:05:10.147Z,97727.03
2022-09-12T20:07:11.418Z,97638.22
2022-09-12T20:09:12.763Z,97729.53
2022-09-12T20:11:14.068Z,97721.91
2022-09-12T20:13:15.398Z,97725.19
2022-09-12T20:15:16.690Z,97708.84
2022-09-12T20:17:18.002Z,97718.13
2022-09-12T20:19:19.290Z,97709.50
2022-09-12T20:21:20.569Z,97711.13
2022-09-12T20:23:21.904Z,97715.31
2022-09-12T20:25:23.230Z,97707.63
2022-09-12T20:27:24.532Z,97711.06
2022-09-12T20:29:25.825Z,97715.31
2022-09-12T20:31:27.191Z,97716.31
2022-09-12T20:33:28.494Z,97708.66
2022-09-12T20:35:29.778Z,97709.53
2022-09-12T20:37:31.095Z,97711.34
2022-09-12T20:39:32.391Z,97708.84
2022-09-12T20:41:33.715Z,97705.38
2022-09-12T20:43:35.026Z,97704.50
2022-09-12T20:45:36.308Z,97705.34
2022-09-12T20:47:37.592Z,97696.75
2022-09-12T20:49:38.863Z,97693.38
2022-09-12T20:51:40.193Z,97698.50
2022-09-12T20:53:41.477Z,97699.72
2022-09-12T20:55:42.772Z,97698.22
2022-09-12T20:57:44.107Z,97697.47
2022-09-12T20:59:45.418Z,97690.38
2022-09-12T21:01:46.814Z,97691.31
2022-09-12T21:03:48.429Z,97693.53
2022-09-12T21:05:49.767Z,97688.94
2022-09-12T21:07:51.043Z,97694.69
2022-09-12T21:09:54.269Z,97687.72
2022-09-12T21:11:55.555Z,97686.75
2022-09-12T21:13:56.868Z,97690.16
2022-09-12T21:15:58.172Z,97685.00
2022-09-12T21:17:59.475Z,97684.09
2022-09-12T21:20:00.756Z,97677.91
2022-09-12T21:22:02.267Z,97682.88
2022-09-12T21:24:03.706Z,97677.06
2022-09-12T21:26:05.008Z,97676.25
2022-09-12T21:28:06.333Z,97676.13
2022-09-12T21:30:07.611Z,97677.06
2022-09-12T21:32:13.906Z,97682.84
2022-09-12T21:34:15.938Z,97682.31
2022-09-12T21:36:17.224Z,97685.81
2022-09-12T21:38:18.520Z,97677.25
2022-09-12T21:40:19.940Z,97673.94
2022-09-12T21:42:21.247Z,97674.78
2022-09-12T21:44:22.566Z,97680.50
2022-09-12T21:46:23.978Z,97680.31
2022-09-12T21:48:25.337Z,97680.28
2022-09-12T21:50:26.616Z,97683.69
2022-09-12T21:52:28.110Z,97676.16
2022-09-12T21:54:29.378Z,97680.28
2022-09-12T21:56:31.207Z,97673.38
2022-09-12T21:58:32.522Z,97666.72
2022-09-12T22:00:33.846Z,97670.25
2022-09-12T22:02:35.158Z,97671.13
2022-09-12T22:04:36.431Z,97662.63
2022-09-12T22:06:37.836Z,97664.38
2022-09-12T22:08:39.255Z,97658.50
2022-09-12T22:10:40.810Z,97661.53
2022-09-12T22:12:46.064Z,97659.59
2022-09-12T22:14:48.028Z,97657.38
2022-09-12T22:16:49.546Z,97652.41
2022-09-12T22:18:50.901Z,97655.19
2022-09-12T22:20:52.183Z,97659.69
2022-09-12T22:23:28.751Z,97661.56
2022-09-12T22:25:30.657Z,97658.34
2022-09-12T22:27:31.979Z,97653.31
2022-09-12T22:29:33.256Z,97655.13
2022-09-12T22:31:34.583Z,97651.81
2022-09-12T22:33:35.922Z,97645.91
2022-09-12T22:35:37.405Z,97643.44
2022-09-12T22:37:38.691Z,97640.13
2022-09-12T22:39:39.996Z,97637.63
2022-09-12T22:41:41.266Z,97633.34
2022-09-12T22:43:42.588Z,97629.19
2022-09-12T22:45:43.932Z,97630.09
2022-09-12T22:47:45.275Z,97620.75
2022-09-12T22:49:47.710Z,97627.59
2022-09-12T22:51:49.033Z,97616.56
2022-09-12T22:53:51.493Z,97618.34
2022-09-12T22:55:52.859Z,97618.44
2022-09-12T22:57:54.451Z,97617.59
2022-09-12T22:59:55.738Z,97614.22
2022-09-12T23:01:57.228Z,97611.63
2022-09-12T23:03:58.612Z,97615.03
2022-09-12T23:05:59.909Z,97605.72
2022-09-12T23:08:01.231Z,97604.03
2022-09-12T23:10:02.516Z,97605.75
2022-09-12T23:12:04.436Z,97610.03
2022-09-12T23:14:05.745Z,97603.25
2022-09-12T23:16:07.084Z,97605.84
2022-09-12T23:18:08.507Z,97603.28
2022-09-12T23:20:09.836Z,97602.50
2022-09-12T23:22:11.139Z,97596.56
2022-09-12T23:24:12.655Z,97594.06
2022-09-12T23:26:13.963Z,97591.50
2022-09-12T23:28:15.270Z,97585.59
2022-09-12T23:30:19.923Z,97586.47
2022-09-12T23:32:21.196Z,97589.91
2022-09-12T23:34:22.500Z,97589.06
2022-09-12T23:36:23.798Z,97581.47
2022-09-12T23:38:25.123Z,97534.00
2022-09-12T23:40:26.443Z,97586.41
2022-09-12T23:42:27.762Z,97580.38
2022-09-12T23:44:29.052Z,97583.00
2022-09-12T23:46:30.403Z,97583.03
2022-09-12T23:48:31.665Z,97575.41
2022-09-12T23:50:32.943Z,97579.69
2022-09-12T23:52:34.226Z,97575.47